sensor_id;sensor_type;location;lat;lon;timestamp;temperature;humidity
19847;DHT22;10084;50.518;8.588;2022-07-29T01:57:44;19.60;90.60
19847;DHT22;10084;50.518;8.588;2022-07-29T02:22:19;18.60;91.50
19847;DHT22;10084;50.518;8.588;2022-07-29T02:24:47;18.60;81.60
19847;DHT22;10084;50.518;8.588;2022-07-29T02:27:15;18.60;79.60
19847;DHT22;10084;50.518;8.588;2022-07-29T02:29:41;18.50;79.50
19847;DHT22;10084;50.518;8.588;2022-07-29T02:32:07;18.40;79.30
19847;DHT22;10084;50.518;8.588;2022-07-29T02:34:35;18.40;79.90
19847;DHT22;10084;50.518;8.588;2022-07-29T03:49:41;17.90;87.70
19847;DHT22;10084;50.518;8.588;2022-07-29T03:52:07;17.90;87.90
19847;DHT22;10084;50.518;8.588;2022-07-29T03:54:34;17.90;87.40
19847;DHT22;10084;50.518;8.588;2022-07-29T03:57:01;17.90;87.80
19847;DHT22;10084;50.518;8.588;2022-07-29T03:59:27;17.90;87.60
19847;DHT22;10084;50.518;8.588;2022-07-29T04:01:55;17.80;87.60
19847;DHT22;10084;50.518;8.588;2022-07-29T04:04:22;17.80;87.20
19847;DHT22;10084;50.518;8.588;2022-07-29T04:06:48;17.80;87.20
19847;DHT22;10084;50.518;8.588;2022-07-29T04:09:14;17.80;86.80
19847;DHT22;10084;50.518;8.588;2022-07-29T04:11:41;17.80;87.50
19847;DHT22;10084;50.518;8.588;2022-07-29T04:14:07;17.70;86.50
19847;DHT22;10084;50.518;8.588;2022-07-29T06:49:25;29.50;85.50
19847;DHT22;10084;50.518;8.588;2022-07-29T06:59:18;31.80;85.50
19847;DHT22;10084;50.518;8.588;2022-07-29T07:09:06;34.00;82.20
19847;DHT22;10084;50.518;8.588;2022-07-29T07:16:30;34.60;75.80
19847;DHT22;10084;50.518;8.588;2022-07-29T07:18:56;34.60;73.00
19847;DHT22;10084;50.518;8.588;2022-07-29T07:21:22;34.40;72.10
19847;DHT22;10084;50.518;8.588;2022-07-29T07:23:48;34.10;71.90
19847;DHT22;10084;50.518;8.588;2022-07-29T07:26:13;34.10;72.30
19847;DHT22;10084;50.518;8.588;2022-07-29T07:28:39;34.00;72.50
19847;DHT22;10084;50.518;8.588;2022-07-29T07:31:05;33.90;72.40
19847;DHT22;10084;50.518;8.588;2022-07-29T07:33:30;33.70;71.50
19847;DHT22;10084;50.518;8.588;2022-07-29T07:35:56;33.60;74.50
19847;DHT22;10084;50.518;8.588;2022-07-29T07:38:24;34.00;72.80
19847;DHT22;10084;50.518;8.588;2022-07-29T07:40:49;34.00;75.30
19847;DHT22;10084;50.518;8.588;2022-07-29T07:43:15;34.30;74.60
19847;DHT22;10084;50.518;8.588;2022-07-29T07:48:07;33.90;69.30
19847;DHT22;10084;50.518;8.588;2022-07-29T08:29:55;36.90;65.90
19847;DHT22;10084;50.518;8.588;2022-07-29T08:32:22;36.80;65.40
19847;DHT22;10084;50.518;8.588;2022-07-29T08:34:47;36.70;65.20
19847;DHT22;10084;50.518;8.588;2022-07-29T08:37:13;36.60;64.90
19847;DHT22;10084;50.518;8.588;2022-07-29T08:39:39;36.40;64.80
19847;DHT22;10084;50.518;8.588;2022-07-29T08:42:05;36.20;48.60
19847;DHT22;10084;50.518;8.588;2022-07-29T08:44:31;36.00;46.40
19847;DHT22;10084;50.518;8.588;2022-07-29T08:46:58;35.80;46.40
19847;DHT22;10084;50.518;8.588;2022-07-29T08:49:23;35.60;44.60
19847;DHT22;10084;50.518;8.588;2022-07-29T08:51:49;35.40;45.70
19847;DHT22;10084;50.518;8.588;2022-07-29T09:27:21;33.90;64.10
19847;DHT22;10084;50.518;8.588;2022-07-29T09:29:55;34.00;65.10
19847;DHT22;10084;50.518;8.588;2022-07-29T09:32:21;34.00;65.50
19847;DHT22;10084;50.518;8.588;2022-07-29T09:34:47;34.20;65.60
19847;DHT22;10084;50.518;8.588;2022-07-29T09:37:26;34.30;65.60
19847;DHT22;10084;50.518;8.588;2022-07-29T09:39:51;34.60;65.30
19847;DHT22;10084;50.518;8.588;2022-07-29T09:47:46;36.50;65.40
19847;DHT22;10084;50.518;8.588;2022-07-29T09:50:14;37.90;65.20
19847;DHT22;10084;50.518;8.588;2022-07-29T10:15:16;43.10;57.30
19847;DHT22;10084;50.518;8.588;2022-07-29T10:25:01;45.30;59.60
19847;DHT22;10084;50.518;8.588;2022-07-29T11:19:22;45.80;46.50
19847;DHT22;10084;50.518;8.588;2022-07-29T11:21:48;45.00;45.50
19847;DHT22;10084;50.518;8.588;2022-07-29T11:24:24;44.50;48.40
19847;DHT22;10084;50.518;8.588;2022-07-29T11:27:13;44.30;42.40
19847;DHT22;10084;50.518;8.588;2022-07-29T11:29:59;43.70;40.50
19847;DHT22;10084;50.518;8.588;2022-07-29T11:32:36;42.90;44.80
19847;DHT22;10084;50.518;8.588;2022-07-29T11:37:39;41.40;46.30
19847;DHT22;10084;50.518;8.588;2022-07-29T11:47:28;39.10;27.80
19847;DHT22;10084;50.518;8.588;2022-07-29T11:52:21;39.90;56.70
19847;DHT22;10084;50.518;8.588;2022-07-29T11:54:48;40.00;55.40
19847;DHT22;10084;50.518;8.588;2022-07-29T11:57:18;39.90;53.70
19847;DHT22;10084;50.518;8.588;2022-07-29T11:59:46;39.60;54.60
19847;DHT22;10084;50.518;8.588;2022-07-29T12:12:22;36.80;53.90
19847;DHT22;10084;50.518;8.588;2022-07-29T12:14:48;36.40;52.40
19847;DHT22;10084;50.518;8.588;2022-07-29T12:17:34;35.90;33.30
19847;DHT22;10084;50.518;8.588;2022-07-29T12:20:02;35.70;49.60
19847;DHT22;10084;50.518;8.588;2022-07-29T12:22:35;35.60;56.50
19847;DHT22;10084;50.518;8.588;2022-07-29T12:25:13;35.50;56.40
19847;DHT22;10084;50.518;8.588;2022-07-29T12:30:16;35.10;55.90
19847;DHT22;10084;50.518;8.588;2022-07-29T12:32:46;35.00;60.20
19847;DHT22;10084;50.518;8.588;2022-07-29T12:35:17;34.90;52.60
19847;DHT22;10084;50.518;8.588;2022-07-29T12:37:46;34.90;51.80
19847;DHT22;10084;50.518;8.588;2022-07-29T12:40:18;34.70;52.00
19847;DHT22;10084;50.518;8.588;2022-07-29T12:43:12;34.60;52.50
19847;DHT22;10084;50.518;8.588;2022-07-29T12:45:40;34.40;52.60
19847;DHT22;10084;50.518;8.588;2022-07-29T12:48:08;34.30;53.20
19847;DHT22;10084;50.518;8.588;2022-07-29T12:50:36;34.30;54.20
19847;DHT22;10084;50.518;8.588;2022-07-29T12:53:12;34.20;54.70
19847;DHT22;10084;50.518;8.588;2022-07-29T12:55:46;34.10;54.50
19847;DHT22;10084;50.518;8.588;2022-07-29T13:08:37;33.10;59.10
19847;DHT22;10084;50.518;8.588;2022-07-29T13:11:03;33.20;57.10
19847;DHT22;10084;50.518;8.588;2022-07-29T13:13:29;33.10;56.40
19847;DHT22;10084;50.518;8.588;2022-07-29T13:18:34;32.30;72.90
19847;DHT22;10084;50.518;8.588;2022-07-29T13:21:14;32.40;61.80
19847;DHT22;10084;50.518;8.588;2022-07-29T13:23:41;32.00;60.10
19847;DHT22;10084;50.518;8.588;2022-07-29T13:26:08;31.90;61.30
19847;DHT22;10084;50.518;8.588;2022-07-29T13:28:34;31.80;61.70
19847;DHT22;10084;50.518;8.588;2022-07-29T13:31:00;31.80;59.60
19847;DHT22;10084;50.518;8.588;2022-07-29T13:33:26;31.80;60.50
19847;DHT22;10084;50.518;8.588;2022-07-29T13:35:52;31.80;58.40
19847;DHT22;10084;50.518;8.588;2022-07-29T13:38:17;31.70;60.40
19847;DHT22;10084;50.518;8.588;2022-07-29T13:40:43;31.50;61.10
19847;DHT22;10084;50.518;8.588;2022-07-29T13:43:12;31.00;71.90
19847;DHT22;10084;50.518;8.588;2022-07-29T13:45:37;31.10;60.40
19847;DHT22;10084;50.518;8.588;2022-07-29T13:48:03;31.00;62.10
19847;DHT22;10084;50.518;8.588;2022-07-29T13:50:29;31.00;62.30
19847;DHT22;10084;50.518;8.588;2022-07-29T13:52:55;30.90;63.00
19847;DHT22;10084;50.518;8.588;2022-07-29T14:00:18;30.40;64.40
19847;DHT22;10084;50.518;8.588;2022-07-29T14:02:46;30.30;64.30
19847;DHT22;10084;50.518;8.588;2022-07-29T14:22:19;29.40;69.90
19847;DHT22;10084;50.518;8.588;2022-07-29T14:24:45;29.40;62.90
19847;DHT22;10084;50.518;8.588;2022-07-29T14:27:11;29.30;61.80
19847;DHT22;10084;50.518;8.588;2022-07-29T14:29:37;29.10;61.30
19847;DHT22;10084;50.518;8.588;2022-07-29T14:32:06;29.00;62.20
19847;DHT22;10084;50.518;8.588;2022-07-29T14:34:33;28.80;61.50
19847;DHT22;10084;50.518;8.588;2022-07-29T14:36:59;28.70;62.20
19847;DHT22;10084;50.518;8.588;2022-07-29T14:39:25;28.50;62.20
19847;DHT22;10084;50.518;8.588;2022-07-29T14:41:50;28.40;62.80
19847;DHT22;10084;50.518;8.588;2022-07-29T14:44:19;28.20;66.40
19847;DHT22;10084;50.518;8.588;2022-07-29T14:49:12;28.00;66.00
19847;DHT22;10084;50.518;8.588;2022-07-29T14:51:37;28.10;67.20
19847;DHT22;10084;50.518;8.588;2022-07-29T14:54:03;28.10;64.30
19847;DHT22;10084;50.518;8.588;2022-07-29T14:56:29;28.00;64.10
19847;DHT22;10084;50.518;8.588;2022-07-29T15:08:44;27.20;68.50
19847;DHT22;10084;50.518;8.588;2022-07-29T15:11:10;27.20;69.40
19847;DHT22;10084;50.518;8.588;2022-07-29T15:20:57;26.60;77.70
19847;DHT22;10084;50.518;8.588;2022-07-29T15:23:22;26.80;71.30
19847;DHT22;10084;50.518;8.588;2022-07-29T15:25:48;26.70;70.20
19847;DHT22;10084;50.518;8.588;2022-07-29T15:28:14;26.70;69.30
19847;DHT22;10084;50.518;8.588;2022-07-29T15:30:40;26.60;68.90
19847;DHT22;10084;50.518;8.588;2022-07-29T15:33:07;26.50;67.80
19847;DHT22;10084;50.518;8.588;2022-07-29T15:38:02;26.20;76.00
19847;DHT22;10084;50.518;8.588;2022-07-29T15:48:04;25.80;78.90
19847;DHT22;10084;50.518;8.588;2022-07-29T15:50:30;25.90;74.40
19847;DHT22;10084;50.518;8.588;2022-07-29T15:52:56;25.80;72.40
19847;DHT22;10084;50.518;8.588;2022-07-29T15:55:22;25.80;72.50
19847;DHT22;10084;50.518;8.588;2022-07-29T15:57:48;25.80;72.30
19847;DHT22;10084;50.518;8.588;2022-07-29T16:00:14;25.80;72.30
19847;DHT22;10084;50.518;8.588;2022-07-29T16:02:42;25.90;73.30
19847;DHT22;10084;50.518;8.588;2022-07-29T16:05:08;25.90;74.40
19847;DHT22;10084;50.518;8.588;2022-07-29T16:07:34;25.90;74.40
19847;DHT22;10084;50.518;8.588;2022-07-29T16:10:00;25.80;72.90
19847;DHT22;10084;50.518;8.588;2022-07-29T16:12:26;25.90;74.20
19847;DHT22;10084;50.518;8.588;2022-07-29T16:14:51;25.90;74.90
19847;DHT22;10084;50.518;8.588;2022-07-29T16:17:17;26.00;74.70
19847;DHT22;10084;50.518;8.588;2022-07-29T16:19:44;26.00;73.70
19847;DHT22;10084;50.518;8.588;2022-07-29T16:22:10;26.10;73.70
19847;DHT22;10084;50.518;8.588;2022-07-29T16:24:35;26.20;73.70
19847;DHT22;10084;50.518;8.588;2022-07-29T16:27:01;26.30;74.00
19847;DHT22;10084;50.518;8.588;2022-07-29T16:29:27;26.20;76.20
19847;DHT22;10084;50.518;8.588;2022-07-29T16:31:53;26.10;77.00
19847;DHT22;10084;50.518;8.588;2022-07-29T16:34:19;26.00;75.80
19847;DHT22;10084;50.518;8.588;2022-07-29T16:36:44;25.90;75.70
19847;DHT22;10084;50.518;8.588;2022-07-29T16:39:10;25.80;76.50
19847;DHT22;10084;50.518;8.588;2022-07-29T16:41:37;25.80;74.90
19847;DHT22;10084;50.518;8.588;2022-07-29T16:44:03;26.00;76.10
19847;DHT22;10084;50.518;8.588;2022-07-29T16:48:55;25.00;74.70
19847;DHT22;10084;50.518;8.588;2022-07-29T16:53:47;26.40;75.30
19847;DHT22;10084;50.518;8.588;2022-07-29T16:56:13;26.60;76.00
19847;DHT22;10084;50.518;8.588;2022-07-29T16:58:39;26.70;73.00
19847;DHT22;10084;50.518;8.588;2022-07-29T17:01:05;26.70;74.40
19847;DHT22;10084;50.518;8.588;2022-07-29T17:03:31;26.80;76.10
19847;DHT22;10084;50.518;8.588;2022-07-29T17:05:56;26.90;75.70
19847;DHT22;10084;50.518;8.588;2022-07-29T17:08:22;26.80;74.50
19847;DHT22;10084;50.518;8.588;2022-07-29T17:10:50;26.80;77.60
19847;DHT22;10084;50.518;8.588;2022-07-29T17:13:16;26.80;75.10
19847;DHT22;10084;50.518;8.588;2022-07-29T17:18:09;26.70;75.50
19847;DHT22;10084;50.518;8.588;2022-07-29T17:20:35;26.70;75.10
19847;DHT22;10084;50.518;8.588;2022-07-29T17:23:01;26.60;74.30
19847;DHT22;10084;50.518;8.588;2022-07-29T17:25:27;26.60;75.20
19847;DHT22;10084;50.518;8.588;2022-07-29T17:27:53;26.60;79.00
19847;DHT22;10084;50.518;8.588;2022-07-29T17:30:20;26.40;77.00
19847;DHT22;10084;50.518;8.588;2022-07-29T17:32:47;26.30;77.90
19847;DHT22;10084;50.518;8.588;2022-07-29T17:35:12;26.30;77.70
19847;DHT22;10084;50.518;8.588;2022-07-29T17:37:57;26.10;76.10
19847;DHT22;10084;50.518;8.588;2022-07-29T17:40:22;26.00;75.80
19847;DHT22;10084;50.518;8.588;2022-07-29T17:42:48;25.90;79.60
19847;DHT22;10084;50.518;8.588;2022-07-29T17:45:14;25.80;75.50
19847;DHT22;10084;50.518;8.588;2022-07-29T17:52:34;25.60;79.10
19847;DHT22;10084;50.518;8.588;2022-07-29T17:55:00;25.50;78.20
19847;DHT22;10084;50.518;8.588;2022-07-29T17:57:26;25.40;80.00
19847;DHT22;10084;50.518;8.588;2022-07-29T17:59:52;25.40;80.90
19847;DHT22;10084;50.518;8.588;2022-07-29T18:02:18;25.30;78.80
19847;DHT22;10084;50.518;8.588;2022-07-29T18:04:44;25.30;82.20
19847;DHT22;10084;50.518;8.588;2022-07-29T18:07:09;25.20;81.50
19847;DHT22;10084;50.518;8.588;2022-07-29T18:09:36;25.10;80.70
19847;DHT22;10084;50.518;8.588;2022-07-29T18:12:01;25.10;77.10
19847;DHT22;10084;50.518;8.588;2022-07-29T18:14:27;25.00;76.80
19847;DHT22;10084;50.518;8.588;2022-07-29T18:21:45;24.80;79.00
19847;DHT22;10084;50.518;8.588;2022-07-29T18:24:10;24.70;78.70
19847;DHT22;10084;50.518;8.588;2022-07-29T18:26:37;24.60;80.80
19847;DHT22;10084;50.518;8.588;2022-07-29T18:29:02;24.50;79.40
19847;DHT22;10084;50.518;8.588;2022-07-29T18:36:21;24.40;90.80
19847;DHT22;10084;50.518;8.588;2022-07-29T18:38:47;24.20;82.30
19847;DHT22;10084;50.518;8.588;2022-07-29T18:43:42;23.70;85.30
19847;DHT22;10084;50.518;8.588;2022-07-29T18:51:02;23.10;84.90
19847;DHT22;10084;50.518;8.588;2022-07-29T19:08:16;22.30;86.10
19847;DHT22;10084;50.518;8.588;2022-07-29T19:10:42;22.30;84.80
19847;DHT22;10084;50.518;8.588;2022-07-29T19:13:08;22.30;84.70
19847;DHT22;10084;50.518;8.588;2022-07-29T19:15:33;22.20;85.00
19847;DHT22;10084;50.518;8.588;2022-07-29T19:20:26;22.10;85.50
19847;DHT22;10084;50.518;8.588;2022-07-29T19:35:10;22.00;86.20
19847;DHT22;10084;50.518;8.588;2022-07-29T19:37:58;22.00;88.30
